Portada
METAR-TAF:

METAR-TAF

Aeroports :

Laupheim, Alemanya

latitud: 48-13N, longitud: 009-55E, altitud: 538 m

Observació

L'informe es va fer fa 36 minuts, a les 16:20 UTC
Vent 4 kt del Sud
Temperatura 1°C
Humitat 69%
Pressió 1025 hPa
Visibilitat 10 km o més
Escasses núvols a una alçada de 5000 ft

METAR: ETHL 101620Z 17004KT 9999 FEW050 01/M04 Q1025 BLU+BLU+

Hora: 17:56 (16:56 UTC)

Pronòstic

L'informe es va fer fa 2 hores i 36 minuts, a les 14:20 UTC
Pronòstic vàlid del 10 a les 15 UTC al 10 a les 24 UTC
Vent 5 kt del Sud-Oest
Visibilitat 10 km o més
Escasses núvols a una alçada de 2000 ft
Probabilitat 30%
l' 10 a les 22 UTC al 10 a les 24 UTC
Vent 3 kt amb direcció variable
Visibilitat: 5000 m
Cel clar
boirina

TAF: ETHL 101420Z 1015/1024 23005KT 9999 NSW FEW020 PROB30 1022/1024 VRB03KT 5000 BR SKC

Observacions i pronòstics meteorològics de més de 4000 aeroports (METAR i TAF).

Les estacions disponibles són els punts grocs i vermells al mapa.

Posi el ratolí al punt desitjat per veure el nom de l'estació.

Feu clic per veure les observacions i els pronòstics meteorològics.

Per canviar el mapa: feu clic els botons verds amb una creu de color negre per apropar; al botó verd amb un guió per allunyar la imatge; o en les fletxes verdes per a mapes adjacents.


METAR-TAF: